Terminal Aerodrome Forecast
Issued by NWS

Home | Current Version | Previous Version | Graphics & Text | Print | Product List | Glossary On
Versions: 1 2 3 4 5 6 7 8 9 10 11 12 13 14 15 16 17
000
FTUS41 KCLE 212201 AAA
TAFFDY
TAF AMD
KFDY 212201Z 2122/2218 21006KT P6SM OVC100
     FM220300 22006KT P6SM OVC025
     FM220500 20004KT 3SM BR OVC012
     FM220900 20004KT 1SM BR OVC004
     FM221400 22006KT 4SM BR SCT015 BKN022=

USA.gov is the U.S. government's official web portal to all federal, state and local government web resources and services.